sensor_id;sensor_type;location;lat;lon;timestamp;P1;durP1;ratioP1;P2;durP2;ratioP2
41923;SDS011;27613;48.116;11.656;2022-12-20T00:00:57;16.08;;;10.05;;
41923;SDS011;27613;48.116;11.656;2022-12-20T00:03:22;14.73;;;8.35;;
41923;SDS011;27613;48.116;11.656;2022-12-20T00:05:48;10.32;;;7.65;;
41923;SDS011;27613;48.116;11.656;2022-12-20T00:08:14;10.38;;;7.20;;
41923;SDS011;27613;48.116;11.656;2022-12-20T00:10:42;11.63;;;8.07;;
41923;SDS011;27613;48.116;11.656;2022-12-20T00:13:09;14.30;;;8.68;;
41923;SDS011;27613;48.116;11.656;2022-12-20T00:15:35;15.23;;;7.70;;
41923;SDS011;27613;48.116;11.656;2022-12-20T00:18:02;10.38;;;7.13;;
41923;SDS011;27613;48.116;11.656;2022-12-20T00:20:27;10.50;;;7.03;;
41923;SDS011;27613;48.116;11.656;2022-12-20T00:22:54;9.23;;;6.72;;
41923;SDS011;27613;48.116;11.656;2022-12-20T00:25:20;9.95;;;6.63;;
41923;SDS011;27613;48.116;11.656;2022-12-20T00:27:46;9.65;;;6.95;;
41923;SDS011;27613;48.116;11.656;2022-12-20T00:30:12;9.07;;;6.63;;
41923;SDS011;27613;48.116;11.656;2022-12-20T00:32:38;14.93;;;7.10;;
41923;SDS011;27613;48.116;11.656;2022-12-20T00:35:04;9.35;;;6.93;;
41923;SDS011;27613;48.116;11.656;2022-12-20T00:37:30;13.20;;;7.45;;
41923;SDS011;27613;48.116;11.656;2022-12-20T00:39:56;17.10;;;7.97;;
41923;SDS011;27613;48.116;11.656;2022-12-20T00:42:21;10.93;;;7.63;;
41923;SDS011;27613;48.116;11.656;2022-12-20T00:44:47;8.63;;;6.00;;
41923;SDS011;27613;48.116;11.656;2022-12-20T00:47:13;7.80;;;5.25;;
41923;SDS011;27613;48.116;11.656;2022-12-20T00:49:39;7.90;;;5.25;;
41923;SDS011;27613;48.116;11.656;2022-12-20T00:52:05;13.10;;;5.90;;
41923;SDS011;27613;48.116;11.656;2022-12-20T00:54:31;6.22;;;4.35;;
41923;SDS011;27613;48.116;11.656;2022-12-20T00:56:57;6.88;;;4.53;;
41923;SDS011;27613;48.116;11.656;2022-12-20T00:59:23;7.13;;;4.60;;
41923;SDS011;27613;48.116;11.656;2022-12-20T01:04:48;10.27;;;5.00;;
41923;SDS011;27613;48.116;11.656;2022-12-20T01:08:00;9.32;;;5.05;;
41923;SDS011;27613;48.116;11.656;2022-12-20T01:14:16;5.60;;;4.05;;
41923;SDS011;27613;48.116;11.656;2022-12-20T01:24:10;8.75;;;4.55;;
41923;SDS011;27613;48.116;11.656;2022-12-20T01:27:54;6.65;;;4.57;;
41923;SDS011;27613;48.116;11.656;2022-12-20T01:31:03;6.10;;;4.18;;
41923;SDS011;27613;48.116;11.656;2022-12-20T01:34:02;7.82;;;4.78;;
41923;SDS011;27613;48.116;11.656;2022-12-20T01:46:32;13.90;;;7.15;;
41923;SDS011;27613;48.116;11.656;2022-12-20T01:54:55;7.72;;;4.53;;
41923;SDS011;27613;48.116;11.656;2022-12-20T01:57:37;8.43;;;4.63;;
41923;SDS011;27613;48.116;11.656;2022-12-20T02:00:15;8.57;;;4.55;;
41923;SDS011;27613;48.116;11.656;2022-12-20T02:02:42;15.25;;;6.03;;
41923;SDS011;27613;48.116;11.656;2022-12-20T02:05:10;16.48;;;7.57;;
41923;SDS011;27613;48.116;11.656;2022-12-20T02:07:38;12.23;;;6.18;;
41923;SDS011;27613;48.116;11.656;2022-12-20T02:10:06;18.75;;;7.53;;
41923;SDS011;27613;48.116;11.656;2022-12-20T02:12:39;11.68;;;6.57;;
41923;SDS011;27613;48.116;11.656;2022-12-20T02:23:22;4.97;;;3.63;;
41923;SDS011;27613;48.116;11.656;2022-12-20T02:26:16;4.30;;;3.00;;
41923;SDS011;27613;48.116;11.656;2022-12-20T02:31:48;5.55;;;3.50;;
41923;SDS011;27613;48.116;11.656;2022-12-20T02:34:29;5.20;;;3.22;;
41923;SDS011;27613;48.116;11.656;2022-12-20T02:36:57;5.18;;;3.47;;
41923;SDS011;27613;48.116;11.656;2022-12-20T02:39:23;4.20;;;3.13;;
41923;SDS011;27613;48.116;11.656;2022-12-20T02:41:53;4.45;;;3.05;;
41923;SDS011;27613;48.116;11.656;2022-12-20T02:44:27;4.65;;;3.13;;
41923;SDS011;27613;48.116;11.656;2022-12-20T02:47:17;4.72;;;3.05;;
41923;SDS011;27613;48.116;11.656;2022-12-20T02:49:47;5.72;;;3.53;;
41923;SDS011;27613;48.116;11.656;2022-12-20T02:52:14;4.85;;;3.17;;
41923;SDS011;27613;48.116;11.656;2022-12-20T02:54:41;5.78;;;3.60;;
41923;SDS011;27613;48.116;11.656;2022-12-20T02:57:09;4.53;;;2.92;;
41923;SDS011;27613;48.116;11.656;2022-12-20T02:59:49;4.53;;;3.00;;
41923;SDS011;27613;48.116;11.656;2022-12-20T03:02:22;4.32;;;3.00;;
41923;SDS011;27613;48.116;11.656;2022-12-20T03:04:49;4.30;;;2.92;;
41923;SDS011;27613;48.116;11.656;2022-12-20T03:07:15;4.38;;;2.78;;
41923;SDS011;27613;48.116;11.656;2022-12-20T03:09:41;4.70;;;2.97;;
41923;SDS011;27613;48.116;11.656;2022-12-20T03:12:09;4.18;;;2.75;;
41923;SDS011;27613;48.116;11.656;2022-12-20T03:14:36;4.55;;;3.10;;
41923;SDS011;27613;48.116;11.656;2022-12-20T03:17:02;4.28;;;2.83;;
41923;SDS011;27613;48.116;11.656;2022-12-20T03:19:28;3.97;;;2.75;;
41923;SDS011;27613;48.116;11.656;2022-12-20T03:21:54;5.72;;;3.28;;
41923;SDS011;27613;48.116;11.656;2022-12-20T03:24:19;4.57;;;2.92;;
41923;SDS011;27613;48.116;11.656;2022-12-20T03:26:45;4.00;;;2.75;;
41923;SDS011;27613;48.116;11.656;2022-12-20T03:29:11;3.72;;;2.75;;
41923;SDS011;27613;48.116;11.656;2022-12-20T03:31:37;4.70;;;2.95;;
41923;SDS011;27613;48.116;11.656;2022-12-20T03:34:02;4.32;;;3.05;;
41923;SDS011;27613;48.116;11.656;2022-12-20T03:36:29;3.88;;;2.83;;
41923;SDS011;27613;48.116;11.656;2022-12-20T03:38:55;3.47;;;2.45;;
41923;SDS011;27613;48.116;11.656;2022-12-20T03:41:21;4.50;;;2.80;;
41923;SDS011;27613;48.116;11.656;2022-12-20T03:43:47;3.72;;;2.70;;
41923;SDS011;27613;48.116;11.656;2022-12-20T03:46:13;4.15;;;3.10;;
41923;SDS011;27613;48.116;11.656;2022-12-20T03:48:39;5.88;;;3.00;;
41923;SDS011;27613;48.116;11.656;2022-12-20T03:51:05;4.03;;;2.83;;
41923;SDS011;27613;48.116;11.656;2022-12-20T03:53:31;4.10;;;2.63;;
41923;SDS011;27613;48.116;11.656;2022-12-20T03:55:57;3.65;;;2.55;;
41923;SDS011;27613;48.116;11.656;2022-12-20T03:58:22;3.33;;;2.42;;
41923;SDS011;27613;48.116;11.656;2022-12-20T04:00:48;3.53;;;2.33;;
41923;SDS011;27613;48.116;11.656;2022-12-20T04:03:14;4.05;;;2.45;;
41923;SDS011;27613;48.116;11.656;2022-12-20T04:05:39;3.97;;;2.47;;
41923;SDS011;27613;48.116;11.656;2022-12-20T04:08:06;3.53;;;2.50;;
41923;SDS011;27613;48.116;11.656;2022-12-20T04:10:31;3.75;;;2.65;;
41923;SDS011;27613;48.116;11.656;2022-12-20T04:12:57;3.70;;;2.50;;
41923;SDS011;27613;48.116;11.656;2022-12-20T04:15:22;2.63;;;2.13;;
41923;SDS011;27613;48.116;11.656;2022-12-20T04:17:48;5.50;;;3.00;;
41923;SDS011;27613;48.116;11.656;2022-12-20T04:20:15;4.43;;;2.47;;
41923;SDS011;27613;48.116;11.656;2022-12-20T04:22:47;3.00;;;2.20;;
41923;SDS011;27613;48.116;11.656;2022-12-20T04:25:15;3.53;;;2.50;;
41923;SDS011;27613;48.116;11.656;2022-12-20T04:27:42;6.45;;;2.95;;
41923;SDS011;27613;48.116;11.656;2022-12-20T04:30:08;4.43;;;2.70;;
41923;SDS011;27613;48.116;11.656;2022-12-20T04:32:35;3.88;;;2.30;;
41923;SDS011;27613;48.116;11.656;2022-12-20T04:35:01;4.00;;;2.70;;
41923;SDS011;27613;48.116;11.656;2022-12-20T04:37:28;4.90;;;2.50;;
41923;SDS011;27613;48.116;11.656;2022-12-20T04:39:54;4.07;;;2.67;;
41923;SDS011;27613;48.116;11.656;2022-12-20T04:42:20;3.08;;;2.28;;
41923;SDS011;27613;48.116;11.656;2022-12-20T04:44:46;3.25;;;2.33;;
41923;SDS011;27613;48.116;11.656;2022-12-20T04:47:12;3.83;;;2.42;;
41923;SDS011;27613;48.116;11.656;2022-12-20T04:49:37;4.90;;;2.50;;
41923;SDS011;27613;48.116;11.656;2022-12-20T04:52:03;4.30;;;2.88;;
41923;SDS011;27613;48.116;11.656;2022-12-20T04:54:47;3.97;;;2.70;;
41923;SDS011;27613;48.116;11.656;2022-12-20T04:57:13;3.55;;;2.58;;
41923;SDS011;27613;48.116;11.656;2022-12-20T04:59:39;4.78;;;3.17;;
41923;SDS011;27613;48.116;11.656;2022-12-20T05:02:04;5.45;;;3.55;;
41923;SDS011;27613;48.116;11.656;2022-12-20T05:04:30;5.03;;;3.22;;
41923;SDS011;27613;48.116;11.656;2022-12-20T05:06:56;6.40;;;3.83;;
41923;SDS011;27613;48.116;11.656;2022-12-20T05:09:21;6.75;;;3.70;;
41923;SDS011;27613;48.116;11.656;2022-12-20T05:11:47;6.88;;;3.88;;
41923;SDS011;27613;48.116;11.656;2022-12-20T05:14:13;15.50;;;10.30;;
41923;SDS011;27613;48.116;11.656;2022-12-20T05:16:38;9.60;;;5.85;;
41923;SDS011;27613;48.116;11.656;2022-12-20T05:19:04;5.55;;;3.55;;
41923;SDS011;27613;48.116;11.656;2022-12-20T05:21:30;4.93;;;3.33;;
41923;SDS011;27613;48.116;11.656;2022-12-20T05:24:15;4.15;;;3.00;;
41923;SDS011;27613;48.116;11.656;2022-12-20T05:27:16;4.72;;;2.90;;
41923;SDS011;27613;48.116;11.656;2022-12-20T05:29:41;5.00;;;2.65;;
41923;SDS011;27613;48.116;11.656;2022-12-20T05:32:07;4.50;;;2.63;;
41923;SDS011;27613;48.116;11.656;2022-12-20T05:34:33;4.20;;;2.67;;
41923;SDS011;27613;48.116;11.656;2022-12-20T05:36:58;4.57;;;2.67;;
41923;SDS011;27613;48.116;11.656;2022-12-20T05:39:24;4.63;;;3.00;;
41923;SDS011;27613;48.116;11.656;2022-12-20T05:41:49;3.33;;;2.30;;
41923;SDS011;27613;48.116;11.656;2022-12-20T05:44:15;3.60;;;2.47;;
41923;SDS011;27613;48.116;11.656;2022-12-20T05:46:41;3.28;;;2.50;;
41923;SDS011;27613;48.116;11.656;2022-12-20T05:49:06;4.25;;;2.75;;
41923;SDS011;27613;48.116;11.656;2022-12-20T05:51:33;3.90;;;2.40;;
41923;SDS011;27613;48.116;11.656;2022-12-20T05:53:59;3.33;;;2.47;;
41923;SDS011;27613;48.116;11.656;2022-12-20T05:56:24;3.90;;;2.35;;
41923;SDS011;27613;48.116;11.656;2022-12-20T05:58:50;3.92;;;2.70;;
41923;SDS011;27613;48.116;11.656;2022-12-20T06:01:16;3.72;;;2.35;;
41923;SDS011;27613;48.116;11.656;2022-12-20T06:03:42;4.25;;;2.60;;
41923;SDS011;27613;48.116;11.656;2022-12-20T06:06:07;3.25;;;2.25;;
41923;SDS011;27613;48.116;11.656;2022-12-20T06:08:33;3.38;;;2.15;;
41923;SDS011;27613;48.116;11.656;2022-12-20T06:10:59;3.65;;;2.45;;
41923;SDS011;27613;48.116;11.656;2022-12-20T06:13:26;4.88;;;2.35;;
41923;SDS011;27613;48.116;11.656;2022-12-20T06:15:51;3.17;;;2.10;;
41923;SDS011;27613;48.116;11.656;2022-12-20T06:18:17;5.35;;;2.20;;
41923;SDS011;27613;48.116;11.656;2022-12-20T06:20:48;3.63;;;2.42;;
41923;SDS011;27613;48.116;11.656;2022-12-20T06:23:17;4.88;;;2.85;;
41923;SDS011;27613;48.116;11.656;2022-12-20T06:25:44;4.57;;;2.47;;
41923;SDS011;27613;48.116;11.656;2022-12-20T06:28:10;4.85;;;3.08;;
41923;SDS011;27613;48.116;11.656;2022-12-20T06:30:36;6.07;;;2.95;;
41923;SDS011;27613;48.116;11.656;2022-12-20T06:33:01;3.50;;;2.38;;
41923;SDS011;27613;48.116;11.656;2022-12-20T06:35:28;8.82;;;2.28;;
41923;SDS011;27613;48.116;11.656;2022-12-20T06:37:54;9.70;;;3.53;;
41923;SDS011;27613;48.116;11.656;2022-12-20T06:40:19;15.57;;;3.80;;
41923;SDS011;27613;48.116;11.656;2022-12-20T06:42:45;6.85;;;2.90;;
41923;SDS011;27613;48.116;11.656;2022-12-20T06:45:11;4.50;;;2.83;;
41923;SDS011;27613;48.116;11.656;2022-12-20T06:47:37;5.18;;;3.10;;
41923;SDS011;27613;48.116;11.656;2022-12-20T06:50:03;4.35;;;2.63;;
41923;SDS011;27613;48.116;11.656;2022-12-20T06:52:29;9.93;;;3.25;;
41923;SDS011;27613;48.116;11.656;2022-12-20T06:54:55;4.75;;;2.65;;
41923;SDS011;27613;48.116;11.656;2022-12-20T06:57:21;8.52;;;2.83;;
41923;SDS011;27613;48.116;11.656;2022-12-20T06:59:46;3.97;;;2.40;;
41923;SDS011;27613;48.116;11.656;2022-12-20T07:02:12;3.38;;;2.58;;
41923;SDS011;27613;48.116;11.656;2022-12-20T07:04:38;6.95;;;2.80;;
41923;SDS011;27613;48.116;11.656;2022-12-20T07:07:03;6.30;;;3.00;;
41923;SDS011;27613;48.116;11.656;2022-12-20T07:09:29;3.53;;;2.53;;
41923;SDS011;27613;48.116;11.656;2022-12-20T07:11:55;4.78;;;2.70;;
41923;SDS011;27613;48.116;11.656;2022-12-20T07:14:21;4.57;;;2.80;;
41923;SDS011;27613;48.116;11.656;2022-12-20T07:16:46;3.58;;;2.42;;
41923;SDS011;27613;48.116;11.656;2022-12-20T07:19:12;5.13;;;2.85;;
41923;SDS011;27613;48.116;11.656;2022-12-20T07:21:39;4.40;;;2.33;;
41923;SDS011;27613;48.116;11.656;2022-12-20T07:24:05;7.20;;;4.53;;
41923;SDS011;27613;48.116;11.656;2022-12-20T07:26:31;4.80;;;3.22;;
41923;SDS011;27613;48.116;11.656;2022-12-20T07:28:57;4.68;;;3.08;;
41923;SDS011;27613;48.116;11.656;2022-12-20T07:31:22;5.40;;;2.55;;
41923;SDS011;27613;48.116;11.656;2022-12-20T07:33:48;4.78;;;2.55;;
41923;SDS011;27613;48.116;11.656;2022-12-20T07:36:14;7.53;;;2.88;;
41923;SDS011;27613;48.116;11.656;2022-12-20T07:38:42;4.60;;;2.50;;
41923;SDS011;27613;48.116;11.656;2022-12-20T07:41:08;3.03;;;1.92;;
41923;SDS011;27613;48.116;11.656;2022-12-20T07:43:39;4.75;;;2.85;;
41923;SDS011;27613;48.116;11.656;2022-12-20T07:46:05;5.43;;;3.35;;
41923;SDS011;27613;48.116;11.656;2022-12-20T07:48:35;4.90;;;2.85;;
41923;SDS011;27613;48.116;11.656;2022-12-20T07:51:03;4.90;;;3.10;;
41923;SDS011;27613;48.116;11.656;2022-12-20T07:53:31;5.13;;;2.95;;
41923;SDS011;27613;48.116;11.656;2022-12-20T07:56:01;6.88;;;3.58;;
41923;SDS011;27613;48.116;11.656;2022-12-20T07:58:28;6.57;;;3.30;;
41923;SDS011;27613;48.116;11.656;2022-12-20T08:00:56;4.70;;;2.63;;
41923;SDS011;27613;48.116;11.656;2022-12-20T08:03:29;5.40;;;2.65;;
41923;SDS011;27613;48.116;11.656;2022-12-20T08:06:22;4.15;;;2.60;;
41923;SDS011;27613;48.116;11.656;2022-12-20T08:08:49;4.95;;;2.85;;
41923;SDS011;27613;48.116;11.656;2022-12-20T08:11:18;6.53;;;2.90;;
41923;SDS011;27613;48.116;11.656;2022-12-20T08:13:47;5.50;;;3.20;;
41923;SDS011;27613;48.116;11.656;2022-12-20T08:16:14;4.20;;;2.58;;
41923;SDS011;27613;48.116;11.656;2022-12-20T08:18:40;5.18;;;2.65;;
41923;SDS011;27613;48.116;11.656;2022-12-20T08:21:06;5.95;;;3.17;;
41923;SDS011;27613;48.116;11.656;2022-12-20T08:23:32;4.65;;;2.78;;
41923;SDS011;27613;48.116;11.656;2022-12-20T08:26:02;8.07;;;2.88;;
41923;SDS011;27613;48.116;11.656;2022-12-20T08:28:27;3.58;;;2.42;;
41923;SDS011;27613;48.116;11.656;2022-12-20T08:30:58;5.68;;;3.40;;
41923;SDS011;27613;48.116;11.656;2022-12-20T08:33:28;5.17;;;3.07;;
41923;SDS011;27613;48.116;11.656;2022-12-20T08:35:58;3.95;;;2.55;;
41923;SDS011;27613;48.116;11.656;2022-12-20T08:38:25;6.35;;;3.33;;
41923;SDS011;27613;48.116;11.656;2022-12-20T08:43:24;3.83;;;2.50;;
41923;SDS011;27613;48.116;11.656;2022-12-20T08:45:51;4.93;;;2.53;;
41923;SDS011;27613;48.116;11.656;2022-12-20T08:48:18;5.68;;;3.33;;
41923;SDS011;27613;48.116;11.656;2022-12-20T08:50:43;5.80;;;3.40;;
41923;SDS011;27613;48.116;11.656;2022-12-20T08:53:09;4.95;;;2.90;;
41923;SDS011;27613;48.116;11.656;2022-12-20T08:55:35;3.75;;;2.63;;
41923;SDS011;27613;48.116;11.656;2022-12-20T08:58:00;5.80;;;3.30;;
41923;SDS011;27613;48.116;11.656;2022-12-20T09:00:26;8.07;;;4.13;;
41923;SDS011;27613;48.116;11.656;2022-12-20T09:02:52;7.25;;;4.10;;
41923;SDS011;27613;48.116;11.656;2022-12-20T09:05:18;8.88;;;4.57;;
41923;SDS011;27613;48.116;11.656;2022-12-20T09:07:44;7.00;;;4.15;;
41923;SDS011;27613;48.116;11.656;2022-12-20T09:10:10;6.63;;;4.15;;
41923;SDS011;27613;48.116;11.656;2022-12-20T09:12:37;6.47;;;4.05;;
41923;SDS011;27613;48.116;11.656;2022-12-20T09:15:03;7.00;;;4.03;;
41923;SDS011;27613;48.116;11.656;2022-12-20T09:17:29;9.18;;;4.95;;
41923;SDS011;27613;48.116;11.656;2022-12-20T09:19:55;5.13;;;3.88;;
41923;SDS011;27613;48.116;11.656;2022-12-20T09:22:20;7.60;;;4.40;;
41923;SDS011;27613;48.116;11.656;2022-12-20T09:24:46;6.75;;;4.70;;
41923;SDS011;27613;48.116;11.656;2022-12-20T09:27:12;5.82;;;4.25;;
41923;SDS011;27613;48.116;11.656;2022-12-20T09:29:37;7.80;;;4.72;;
41923;SDS011;27613;48.116;11.656;2022-12-20T09:32:03;8.18;;;4.15;;
41923;SDS011;27613;48.116;11.656;2022-12-20T09:34:28;7.63;;;3.97;;
41923;SDS011;27613;48.116;11.656;2022-12-20T09:36:54;5.32;;;3.70;;
41923;SDS011;27613;48.116;11.656;2022-12-20T09:39:19;7.03;;;4.40;;
41923;SDS011;27613;48.116;11.656;2022-12-20T09:41:45;6.70;;;4.18;;
41923;SDS011;27613;48.116;11.656;2022-12-20T09:44:13;7.95;;;6.22;;
41923;SDS011;27613;48.116;11.656;2022-12-20T09:46:42;12.77;;;6.35;;
41923;SDS011;27613;48.116;11.656;2022-12-20T09:49:12;7.15;;;4.47;;
41923;SDS011;27613;48.116;11.656;2022-12-20T09:57:11;8.25;;;5.35;;
41923;SDS011;27613;48.116;11.656;2022-12-20T09:59:54;10.05;;;5.88;;
41923;SDS011;27613;48.116;11.656;2022-12-20T10:02:22;8.27;;;5.75;;
41923;SDS011;27613;48.116;11.656;2022-12-20T10:04:49;9.13;;;6.10;;
41923;SDS011;27613;48.116;11.656;2022-12-20T10:15:16;4.65;;;3.28;;
41923;SDS011;27613;48.116;11.656;2022-12-20T10:17:57;5.60;;;3.63;;
41923;SDS011;27613;48.116;11.656;2022-12-20T10:23:10;7.38;;;5.57;;
41923;SDS011;27613;48.116;11.656;2022-12-20T10:25:51;7.80;;;4.20;;
41923;SDS011;27613;48.116;11.656;2022-12-20T10:28:22;4.80;;;3.15;;
41923;SDS011;27613;48.116;11.656;2022-12-20T10:30:51;4.57;;;2.97;;
41923;SDS011;27613;48.116;11.656;2022-12-20T10:33:19;5.13;;;3.50;;
41923;SDS011;27613;48.116;11.656;2022-12-20T10:35:47;4.53;;;3.28;;
41923;SDS011;27613;48.116;11.656;2022-12-20T10:38:14;4.15;;;2.72;;
41923;SDS011;27613;48.116;11.656;2022-12-20T10:40:43;7.47;;;2.92;;
41923;SDS011;27613;48.116;11.656;2022-12-20T10:43:19;3.75;;;2.63;;
41923;SDS011;27613;48.116;11.656;2022-12-20T10:46:01;2.65;;;2.10;;
41923;SDS011;27613;48.116;11.656;2022-12-20T10:48:39;4.90;;;3.42;;
41923;SDS011;27613;48.116;11.656;2022-12-20T10:51:12;4.97;;;3.38;;
41923;SDS011;27613;48.116;11.656;2022-12-20T10:58:56;4.18;;;2.67;;
41923;SDS011;27613;48.116;11.656;2022-12-20T11:01:25;4.55;;;2.88;;
41923;SDS011;27613;48.116;11.656;2022-12-20T11:04:06;6.85;;;3.63;;
41923;SDS011;27613;48.116;11.656;2022-12-20T11:06:49;5.85;;;3.33;;
41923;SDS011;27613;48.116;11.656;2022-12-20T11:11:58;5.70;;;3.53;;
41923;SDS011;27613;48.116;11.656;2022-12-20T11:14:41;8.15;;;4.22;;
41923;SDS011;27613;48.116;11.656;2022-12-20T11:17:20;6.90;;;4.95;;
41923;SDS011;27613;48.116;11.656;2022-12-20T11:19:53;10.10;;;6.35;;
41923;SDS011;27613;48.116;11.656;2022-12-20T11:27:54;11.57;;;6.75;;
41923;SDS011;27613;48.116;11.656;2022-12-20T11:30:46;13.15;;;5.07;;
41923;SDS011;27613;48.116;11.656;2022-12-20T11:36:13;8.25;;;3.95;;
41923;SDS011;27613;48.116;11.656;2022-12-20T11:38:41;4.93;;;3.45;;
41923;SDS011;27613;48.116;11.656;2022-12-20T11:42:15;6.18;;;3.65;;
41923;SDS011;27613;48.116;11.656;2022-12-20T11:44:31;8.52;;;3.85;;
41923;SDS011;27613;48.116;11.656;2022-12-20T11:47:12;6.75;;;4.28;;
41923;SDS011;27613;48.116;11.656;2022-12-20T11:54:57;11.18;;;3.72;;
41923;SDS011;27613;48.116;11.656;2022-12-20T12:00:23;6.40;;;3.20;;
41923;SDS011;27613;48.116;11.656;2022-12-20T12:02:53;4.20;;;3.25;;
41923;SDS011;27613;48.116;11.656;2022-12-20T12:08:10;7.32;;;3.70;;
41923;SDS011;27613;48.116;11.656;2022-12-20T12:10:52;4.75;;;3.10;;
41923;SDS011;27613;48.116;11.656;2022-12-20T12:13:26;5.03;;;3.67;;
41923;SDS011;27613;48.116;11.656;2022-12-20T12:15:56;5.55;;;3.80;;
41923;SDS011;27613;48.116;11.656;2022-12-20T12:18:35;4.22;;;3.22;;
41923;SDS011;27613;48.116;11.656;2022-12-20T12:26:04;5.72;;;3.78;;
41923;SDS011;27613;48.116;11.656;2022-12-20T12:28:56;4.25;;;2.95;;
41923;SDS011;27613;48.116;11.656;2022-12-20T12:31:29;5.72;;;3.60;;
41923;SDS011;27613;48.116;11.656;2022-12-20T12:34:07;4.60;;;3.33;;
41923;SDS011;27613;48.116;11.656;2022-12-20T12:36:49;6.80;;;3.20;;
41923;SDS011;27613;48.116;11.656;2022-12-20T12:45:04;13.93;;;12.15;;
41923;SDS011;27613;48.116;11.656;2022-12-20T12:47:38;12.13;;;8.15;;
41923;SDS011;27613;48.116;11.656;2022-12-20T12:50:15;7.20;;;5.32;;
41923;SDS011;27613;48.116;11.656;2022-12-20T12:52:48;11.98;;;4.80;;
41923;SDS011;27613;48.116;11.656;2022-12-20T13:00:55;6.65;;;4.40;;
41923;SDS011;27613;48.116;11.656;2022-12-20T13:11:56;6.20;;;3.80;;
41923;SDS011;27613;48.116;11.656;2022-12-20T13:19:37;7.95;;;4.10;;
41923;SDS011;27613;48.116;11.656;2022-12-20T13:27:21;6.43;;;3.53;;
41923;SDS011;27613;48.116;11.656;2022-12-20T13:37:53;16.88;;;10.10;;
41923;SDS011;27613;48.116;11.656;2022-12-20T13:43:14;11.77;;;7.53;;
41923;SDS011;27613;48.116;11.656;2022-12-20T13:48:46;9.85;;;6.40;;
41923;SDS011;27613;48.116;11.656;2022-12-20T13:51:25;12.30;;;7.75;;
41923;SDS011;27613;48.116;11.656;2022-12-20T13:53:55;8.63;;;4.60;;
41923;SDS011;27613;48.116;11.656;2022-12-20T13:59:05;5.78;;;2.75;;
41923;SDS011;27613;48.116;11.656;2022-12-20T14:01:36;6.53;;;3.30;;
41923;SDS011;27613;48.116;11.656;2022-12-20T14:04:16;4.18;;;2.58;;
41923;SDS011;27613;48.116;11.656;2022-12-20T14:06:43;5.53;;;3.03;;
41923;SDS011;27613;48.116;11.656;2022-12-20T14:09:33;6.30;;;2.97;;
41923;SDS011;27613;48.116;11.656;2022-12-20T14:12:05;4.90;;;2.92;;
41923;SDS011;27613;48.116;11.656;2022-12-20T14:14:36;5.50;;;3.38;;
41923;SDS011;27613;48.116;11.656;2022-12-20T14:22:40;5.70;;;3.42;;
41923;SDS011;27613;48.116;11.656;2022-12-20T14:25:36;7.30;;;4.03;;
41923;SDS011;27613;48.116;11.656;2022-12-20T14:28:26;5.82;;;3.88;;
41923;SDS011;27613;48.116;11.656;2022-12-20T14:34:00;7.40;;;4.75;;
41923;SDS011;27613;48.116;11.656;2022-12-20T14:36:45;7.38;;;4.70;;
41923;SDS011;27613;48.116;11.656;2022-12-20T14:41:55;10.38;;;4.40;;
41923;SDS011;27613;48.116;11.656;2022-12-20T14:44:25;6.40;;;4.55;;
41923;SDS011;27613;48.116;11.656;2022-12-20T14:46:53;9.20;;;5.10;;
41923;SDS011;27613;48.116;11.656;2022-12-20T14:49:26;6.97;;;4.88;;
41923;SDS011;27613;48.116;11.656;2022-12-20T14:52:12;8.38;;;5.47;;
41923;SDS011;27613;48.116;11.656;2022-12-20T14:54:47;8.43;;;5.18;;
41923;SDS011;27613;48.116;11.656;2022-12-20T15:00:09;6.18;;;4.30;;
41923;SDS011;27613;48.116;11.656;2022-12-20T15:10:52;6.00;;;4.10;;
41923;SDS011;27613;48.116;11.656;2022-12-20T15:13:38;6.03;;;4.75;;
41923;SDS011;27613;48.116;11.656;2022-12-20T15:18:41;12.13;;;6.57;;
41923;SDS011;27613;48.116;11.656;2022-12-20T15:21:17;8.43;;;5.85;;
41923;SDS011;27613;48.116;11.656;2022-12-20T15:23:55;17.42;;;6.82;;
41923;SDS011;27613;48.116;11.656;2022-12-20T15:26:23;8.50;;;5.55;;
41923;SDS011;27613;48.116;11.656;2022-12-20T15:28:50;7.95;;;5.47;;
41923;SDS011;27613;48.116;11.656;2022-12-20T15:31:16;10.45;;;5.97;;
41923;SDS011;27613;48.116;11.656;2022-12-20T15:33:44;8.73;;;6.28;;
41923;SDS011;27613;48.116;11.656;2022-12-20T15:36:17;10.50;;;6.93;;
41923;SDS011;27613;48.116;11.656;2022-12-20T15:38:44;18.45;;;12.25;;
41923;SDS011;27613;48.116;11.656;2022-12-20T15:41:12;17.58;;;9.77;;
41923;SDS011;27613;48.116;11.656;2022-12-20T15:43:45;10.27;;;7.22;;
41923;SDS011;27613;48.116;11.656;2022-12-20T15:46:11;10.73;;;7.88;;
41923;SDS011;27613;48.116;11.656;2022-12-20T15:48:38;9.50;;;7.15;;
41923;SDS011;27613;48.116;11.656;2022-12-20T15:51:05;13.65;;;9.20;;
41923;SDS011;27613;48.116;11.656;2022-12-20T15:56:05;9.13;;;6.90;;
41923;SDS011;27613;48.116;11.656;2022-12-20T15:58:38;13.07;;;8.00;;
41923;SDS011;27613;48.116;11.656;2022-12-20T16:01:04;8.95;;;7.35;;
41923;SDS011;27613;48.116;11.656;2022-12-20T16:03:30;11.38;;;8.02;;
41923;SDS011;27613;48.116;11.656;2022-12-20T16:05:56;15.27;;;8.30;;
41923;SDS011;27613;48.116;11.656;2022-12-20T16:08:22;10.65;;;7.97;;
41923;SDS011;27613;48.116;11.656;2022-12-20T16:10:50;15.38;;;9.35;;
41923;SDS011;27613;48.116;11.656;2022-12-20T16:13:21;19.50;;;9.45;;
41923;SDS011;27613;48.116;11.656;2022-12-20T16:15:48;15.73;;;8.98;;
41923;SDS011;27613;48.116;11.656;2022-12-20T16:18:14;14.38;;;8.73;;
41923;SDS011;27613;48.116;11.656;2022-12-20T16:20:40;11.02;;;8.13;;
41923;SDS011;27613;48.116;11.656;2022-12-20T16:23:19;15.98;;;9.60;;
41923;SDS011;27613;48.116;11.656;2022-12-20T16:25:48;12.70;;;8.50;;
41923;SDS011;27613;48.116;11.656;2022-12-20T16:28:14;12.85;;;8.90;;
41923;SDS011;27613;48.116;11.656;2022-12-20T16:30:41;12.00;;;8.90;;
41923;SDS011;27613;48.116;11.656;2022-12-20T16:33:10;12.68;;;9.13;;
41923;SDS011;27613;48.116;11.656;2022-12-20T16:35:42;13.63;;;9.10;;
41923;SDS011;27613;48.116;11.656;2022-12-20T16:38:07;14.20;;;8.95;;
41923;SDS011;27613;48.116;11.656;2022-12-20T16:40:33;14.75;;;9.65;;
41923;SDS011;27613;48.116;11.656;2022-12-20T16:42:59;12.68;;;9.65;;
41923;SDS011;27613;48.116;11.656;2022-12-20T16:45:26;14.93;;;9.93;;
41923;SDS011;27613;48.116;11.656;2022-12-20T16:47:53;14.35;;;10.55;;
41923;SDS011;27613;48.116;11.656;2022-12-20T16:50:20;13.45;;;9.50;;
41923;SDS011;27613;48.116;11.656;2022-12-20T16:52:48;26.23;;;10.63;;
41923;SDS011;27613;48.116;11.656;2022-12-20T16:55:24;11.60;;;9.02;;
41923;SDS011;27613;48.116;11.656;2022-12-20T16:57:51;14.40;;;9.32;;
41923;SDS011;27613;48.116;11.656;2022-12-20T17:00:19;14.20;;;9.63;;
41923;SDS011;27613;48.116;11.656;2022-12-20T17:02:47;12.25;;;9.35;;
41923;SDS011;27613;48.116;11.656;2022-12-20T17:05:26;12.15;;;8.52;;
41923;SDS011;27613;48.116;11.656;2022-12-20T17:07:54;13.98;;;9.02;;
41923;SDS011;27613;48.116;11.656;2022-12-20T17:10:20;12.38;;;8.43;;
41923;SDS011;27613;48.116;11.656;2022-12-20T17:12:47;12.50;;;8.10;;
41923;SDS011;27613;48.116;11.656;2022-12-20T17:15:18;12.40;;;9.23;;
41923;SDS011;27613;48.116;11.656;2022-12-20T17:17:46;12.55;;;9.15;;
41923;SDS011;27613;48.116;11.656;2022-12-20T17:20:13;15.13;;;9.55;;
41923;SDS011;27613;48.116;11.656;2022-12-20T17:22:39;12.85;;;9.70;;
41923;SDS011;27613;48.116;11.656;2022-12-20T17:25:04;13.55;;;9.80;;
41923;SDS011;27613;48.116;11.656;2022-12-20T17:27:39;15.73;;;9.48;;
41923;SDS011;27613;48.116;11.656;2022-12-20T17:30:06;11.10;;;8.05;;
41923;SDS011;27613;48.116;11.656;2022-12-20T17:32:33;12.18;;;9.27;;